Terminal Aerodrome Forecast
Issued by NWS

Home | Current Version | Previous Version | Text Only | Print | Product List | Glossary On
Versions: 1 2 3 4 5 6 7 8 9 10 11 12 13 14 15 16 17 18 19 20 21 22
000
FTUS45 KABQ 012327
TAFTCC
TAF
KTCC 012327Z 0200/0224 04012G18KT P6SM VCSH SCT015 OVC025
      TEMPO 0200/0203 5SM -RA BR OVC015
     FM020300 03010KT 5SM BR VCSH OVC015
     FM020500 01006KT 4SM BR OVC015
      TEMPO 0210/0214 1SM BR OVC008
     FM021700 VRB06KT P6SM SCT015 BKN070=

USA.gov is the U.S. government's official web portal to all federal, state and local government web resources and services.